Langston, OK

12:55 PM CDT on August 23, 2014 (GMT -0500)
Guthrie Municipal | Change Station
CLOSE
Current Station
Airport
Location: Guthrie,
Elevation: 1066 ft
Nearby Weather Stations

Elev 1066 ft 35.85 °N, 97.41 °W | Updated 1 hour ago

Clear
Clear
94 °F
Feels Like 94 °F
N
13
Wind Variable Wind from SSW
Gusts 25 mph

Today
High -- | Low -- °F
--% Chance of Precip.
Yesterday
High -- | Low -- °F
Precip. -- in
6:53 AM 8:08 PM
Waning Crescent, 3% visible
Pressure 29.91 in
Visibility 10.0 miles
Clouds Clear
Heat Index 94 °F
Dew Point 60 °F
Humidity 32%
Rainfall 0.00 in
Snow Depth Not available.
UV 9 out of 12
Pollen 10.00 out of 12
Air Quality Not available.
Flu Activity Not available.
METAR KGOK 231653Z AUTO 20011G22KT 10SM CLR 34/16 A2995 RMK AO2 SLP128 T03440156

More Conditions Fewer Conditions

Pressure 29.91 in
Visibility 10.0 miles
Clouds Clear
Heat Index 94 °F
Dew Point 60 °F
Humidity 32%
Rainfall 0.00 in
Snow Depth Not available.
UV 9 out of 12
Pollen 10.00 out of 12
Air Quality Not available.
Flu Activity Not available.
METAR KGOK 231653Z AUTO 20011G22KT 10SM CLR 34/16 A2995 RMK AO2 SLP128 T03440156

More Conditions Fewer Conditions

10-Day Weather Forecast

Almanac

Astronomy

Aug. 23, 2014 Rise Set
Actual Time 6:53 AM CDT 8:08 PM CDT
Civil Twilight 6:27 AM CDT 8:35 PM CDT
Nautical Twilight 5:55 AM CDT 9:07 PM CDT
Astronomical Twilight 5:22 AM CDT 9:40 PM CDT
Moon 5:12 AM CDT 6:53 PM CDT
Length of Visible Light 14h 08m
Length of Day
13h 14m
Tomorrow will be 2m 6s shorter.
Waning Crescent, 3% of the Moon is Illuminated
Today
Waning Crescent
Aug 25
New
Sep 2
First Quarter
Sep 8
Full
Sep 15
Last Quarter

Today's Extremes

State Highs State Lows

Community

WunderPhotos

Upload Photos

1,746,537 photos uploaded!

WunderBlogs® & News

By Dr. Jeff Masters
Director of Meteorology, Weather Underground
By Kari Strenfel
Meteorologist, Weather Underground
By Christopher C. Burt
Weather Historian, Weather Underground
August 23, 2014
August 23, 2014
August 23, 2014

Nearby

Snow Depth

Station Depth Elevation
No new snow has been reported.

Earthquake Activity

City Distance Mag. Time & Date
Yale, Oklahoma 34 miles 2.5 11:22 AM CDT
2014-08-18
Waukomis, Oklahoma 34 miles 2.6 9:40 AM CDT
2014-08-18
Yale, Oklahoma 26 miles 2.5 8:07 AM CDT
2014-08-18
Boley, Oklahoma 58 miles 3.4 9:50 PM CDT
2014-08-17
Minimum magnitude displayed is 2.5.

Coastal Water Temperatures

Place Temperature
No Stations Reporting

Nearby Weather Stations